home support login
SAVED Flights LIVE Flights

G-BIWW(LFCJ 28042011) by JDS

 
Description

Circuits at Jonzac (LFCJ) - poor vis due to haze. (Cognac METAR: LFBG 260600Z AUTO 02003KT 5000 BR NSC 13/10 Q1018)

Maximum Speed: 188 km/h
Maximum Altitude: 288 m
Total Time: 1 hr, 9 min, 18 sec
Total Distance: 139 km
Flight Date:
 
map controls

arrow Rotation, and 3D manoeuvring.
Alternatively, hold 'shift' when you click + drag the map

arrow Move forward/back/left/right.
Alternatively, click + drag the map

arrow Zoom in / out.
Alternatively, scroll your mouse wheel

Colour Flight path based on
Time
Speed
Altitude
START
END
Google Map Legend
Flight Detail
Normal (max. 1000 points)
High (max. 4000 points)
Comments
 
You need to login to post.
No account? Register for free now.


 
You need to login to post.
No account? Register for free now.